createdAt,value
2022-11-29T00:02:17.507Z,7.37
2022-11-29T00:04:44.055Z,7.35
2022-11-29T00:07:11.774Z,7.31
2022-11-29T00:09:38.158Z,7.25
2022-11-29T00:12:04.548Z,7.23
2022-11-29T00:14:30.850Z,7.20
2022-11-29T00:16:58.235Z,7.18
2022-11-29T00:19:24.612Z,7.20
2022-11-29T00:21:51.158Z,7.19
2022-11-29T00:24:19.177Z,7.19
2022-11-29T00:26:45.550Z,7.16
2022-11-29T00:29:11.901Z,7.12
2022-11-29T00:31:38.468Z,7.14
2022-11-29T00:34:04.779Z,7.12
2022-11-29T00:36:31.085Z,7.11
2022-11-29T00:38:57.481Z,7.07
2022-11-29T00:41:25.185Z,7.03
2022-11-29T00:43:51.459Z,7.00
2022-11-29T00:46:17.920Z,7.00
2022-11-29T00:48:44.261Z,6.97
2022-11-29T00:51:10.832Z,6.94
2022-11-29T00:53:37.445Z,6.95
2022-11-29T00:56:04.567Z,6.97
2022-11-29T00:58:32.543Z,6.95
2022-11-29T01:00:58.954Z,6.90
2022-11-29T01:03:25.284Z,6.87
2022-11-29T01:05:52.032Z,6.85
2022-11-29T01:08:18.618Z,6.86
2022-11-29T01:10:44.919Z,6.90
2022-11-29T01:13:11.680Z,6.92
2022-11-29T01:15:39.410Z,6.94
2022-11-29T01:18:05.704Z,6.96
2022-11-29T01:20:32.026Z,6.95
2022-11-29T01:22:58.315Z,6.94
2022-11-29T01:25:24.589Z,6.94
2022-11-29T01:27:50.895Z,6.92
2022-11-29T01:30:17.283Z,6.89
2022-11-29T01:32:44.940Z,6.84
2022-11-29T01:35:11.247Z,6.83
2022-11-29T01:37:37.514Z,6.83
2022-11-29T01:40:04.203Z,6.83
2022-11-29T01:42:30.522Z,6.80
2022-11-29T01:45:01.702Z,6.76
2022-11-29T01:47:28.307Z,6.75
2022-11-29T01:49:56.043Z,6.76
2022-11-29T01:52:23.914Z,6.75
2022-11-29T01:54:52.320Z,6.75
2022-11-29T01:57:19.602Z,6.76
2022-11-29T01:59:48.297Z,6.79
2022-11-29T02:02:15.941Z,6.82
2022-11-29T02:04:43.713Z,6.83
2022-11-29T02:07:11.561Z,6.88
2022-11-29T02:09:37.887Z,6.92
2022-11-29T02:12:13.177Z,6.92
2022-11-29T02:14:57.360Z,6.95
2022-11-29T02:17:28.602Z,6.98
2022-11-29T02:20:13.390Z,7.00
2022-11-29T02:22:45.627Z,7.03
2022-11-29T02:25:24.162Z,7.04
2022-11-29T02:28:21.833Z,7.06
2022-11-29T02:30:58.468Z,7.08
2022-11-29T02:33:43.462Z,7.09
2022-11-29T02:36:24.713Z,7.09
2022-11-29T02:39:03.275Z,7.08
2022-11-29T02:41:40.350Z,7.09
2022-11-29T02:44:21.560Z,7.09
2022-11-29T02:46:54.571Z,7.11
2022-11-29T02:49:27.431Z,7.09
2022-11-29T02:51:58.654Z,7.11
2022-11-29T02:54:27.759Z,7.09
2022-11-29T02:56:56.600Z,7.09
2022-11-29T02:59:30.522Z,7.08
2022-11-29T03:02:01.297Z,7.14
2022-11-29T03:04:31.691Z,7.18
2022-11-29T03:07:04.068Z,7.17
2022-11-29T03:09:35.255Z,7.19
2022-11-29T03:12:07.626Z,7.09
2022-11-29T03:14:42.535Z,7.04
2022-11-29T03:17:17.144Z,7.03
2022-11-29T03:19:55.387Z,7.05
2022-11-29T03:22:28.483Z,7.04
2022-11-29T03:25:01.487Z,7.04
2022-11-29T03:27:34.763Z,7.06
2022-11-29T03:30:03.304Z,7.04
2022-11-29T03:32:33.163Z,7.01
2022-11-29T03:35:02.104Z,7.01
2022-11-29T03:37:37.706Z,6.99
2022-11-29T03:40:05.487Z,6.99
2022-11-29T03:42:34.256Z,6.98
2022-11-29T03:45:04.771Z,6.96
2022-11-29T03:47:35.123Z,6.96
2022-11-29T03:50:04.063Z,6.92
2022-11-29T03:52:35.343Z,6.91
2022-11-29T03:55:08.875Z,6.90
2022-11-29T03:57:38.922Z,6.88
2022-11-29T04:00:06.859Z,6.89
2022-11-29T04:02:54.013Z,6.90
2022-11-29T04:05:44.295Z,6.91
2022-11-29T04:08:28.309Z,6.88
2022-11-29T04:11:05.334Z,6.88
2022-11-29T04:13:42.077Z,6.86
2022-11-29T04:16:34.706Z,6.88
2022-11-29T04:19:16.971Z,6.91
2022-11-29T04:21:59.071Z,6.86
2022-11-29T04:24:46.575Z,6.84
2022-11-29T04:27:22.553Z,6.84
2022-11-29T04:30:00.513Z,6.87
2022-11-29T04:32:38.524Z,6.87
2022-11-29T04:35:18.470Z,6.91
2022-11-29T04:37:55.060Z,6.92
2022-11-29T04:40:27.471Z,6.94
2022-11-29T04:43:06.538Z,6.98
2022-11-29T04:45:47.277Z,6.96
2022-11-29T04:48:24.038Z,6.96
2022-11-29T04:50:56.324Z,6.95
2022-11-29T04:53:28.531Z,6.92
2022-11-29T04:55:58.910Z,6.94
2022-11-29T04:58:31.726Z,6.96
2022-11-29T05:01:01.256Z,6.99
2022-11-29T05:03:34.960Z,7.01
2022-11-29T05:06:07.992Z,7.05
2022-11-29T05:08:43.011Z,7.07
2022-11-29T05:11:14.036Z,7.08
2022-11-29T05:13:45.747Z,7.07
2022-11-29T05:16:20.567Z,7.07
2022-11-29T05:18:57.829Z,7.09
2022-11-29T05:21:27.763Z,7.10
2022-11-29T05:23:59.489Z,7.12
2022-11-29T05:26:29.155Z,7.14
2022-11-29T05:29:01.535Z,7.15
2022-11-29T05:31:45.758Z,7.17
2022-11-29T05:34:21.383Z,7.17
2022-11-29T05:36:52.728Z,7.16
2022-11-29T05:39:27.772Z,7.17
2022-11-29T05:42:06.166Z,7.18
2022-11-29T05:44:36.644Z,7.17
2022-11-29T05:47:04.106Z,7.18
2022-11-29T05:49:36.076Z,7.20
2022-11-29T05:52:13.555Z,7.20
2022-11-29T05:54:44.322Z,7.22
2022-11-29T05:57:14.499Z,7.21
2022-11-29T05:59:43.762Z,7.22
2022-11-29T06:02:17.687Z,7.22
2022-11-29T06:04:55.966Z,7.22
2022-11-29T06:07:24.497Z,7.23
2022-11-29T06:10:00.515Z,7.24
2022-11-29T06:12:28.698Z,7.24
2022-11-29T06:15:04.589Z,7.24
2022-11-29T06:17:41.238Z,7.24
2022-11-29T06:20:28.535Z,7.25
2022-11-29T06:23:07.715Z,7.25
2022-11-29T06:25:43.045Z,7.26
2022-11-29T06:28:21.621Z,7.27
2022-11-29T06:30:54.234Z,7.26
2022-11-29T06:33:22.553Z,7.25
2022-11-29T06:35:51.980Z,7.25
2022-11-29T06:38:22.261Z,7.22
2022-11-29T06:40:48.826Z,7.22
2022-11-29T06:43:15.569Z,7.21
2022-11-29T06:45:47.708Z,7.19
2022-11-29T06:48:19.134Z,7.20
2022-11-29T06:50:51.084Z,7.22
2022-11-29T06:53:22.227Z,7.22
2022-11-29T06:55:52.619Z,7.21
2022-11-29T06:58:35.979Z,7.21
2022-11-29T07:01:07.184Z,7.21
2022-11-29T07:03:44.797Z,7.22
2022-11-29T07:06:14.445Z,7.23
2022-11-29T07:08:40.775Z,7.22
2022-11-29T07:11:09.214Z,7.21
2022-11-29T07:13:35.737Z,7.22
2022-11-29T07:16:03.832Z,7.22
2022-11-29T07:18:34.064Z,7.24
2022-11-29T07:21:08.143Z,7.23
2022-11-29T07:23:35.437Z,7.21
2022-11-29T07:26:08.068Z,7.21
2022-11-29T07:28:41.611Z,7.20
2022-11-29T07:31:11.358Z,7.19
2022-11-29T07:33:42.411Z,7.17
2022-11-29T07:36:14.286Z,7.16
2022-11-29T07:38:49.555Z,7.18
2022-11-29T07:41:20.906Z,7.18
2022-11-29T07:43:51.879Z,7.16
2022-11-29T07:46:18.194Z,7.17
2022-11-29T07:48:44.501Z,7.15
2022-11-29T07:51:12.213Z,7.14
2022-11-29T07:53:41.024Z,7.14
2022-11-29T07:56:07.555Z,7.14
2022-11-29T07:58:33.909Z,7.17
2022-11-29T08:01:00.291Z,7.19
2022-11-29T08:03:26.639Z,7.20
2022-11-29T08:05:53.110Z,7.18
2022-11-29T08:08:20.723Z,7.18
2022-11-29T08:10:47.128Z,7.21
2022-11-29T08:13:13.439Z,7.21
2022-11-29T08:15:43.743Z,7.22
2022-11-29T08:18:10.051Z,7.22
2022-11-29T08:20:36.347Z,7.24
2022-11-29T08:23:02.626Z,7.25
2022-11-29T08:25:30.276Z,7.26
2022-11-29T08:27:56.756Z,7.22
2022-11-29T08:30:23.077Z,7.20
2022-11-29T08:32:51.552Z,7.20
2022-11-29T08:35:19.069Z,7.20
2022-11-29T08:37:45.377Z,7.22
2022-11-29T08:40:14.248Z,7.23
2022-11-29T08:42:41.920Z,7.21
2022-11-29T08:45:08.998Z,7.19
2022-11-29T08:47:35.355Z,7.18
2022-11-29T08:50:01.853Z,7.21
2022-11-29T08:52:28.499Z,7.23
2022-11-29T08:54:58.805Z,7.22
2022-11-29T08:57:43.418Z,7.26
2022-11-29T09:00:12.099Z,7.26
2022-11-29T09:02:38.505Z,7.25
2022-11-29T09:05:05.365Z,7.26
2022-11-29T09:07:31.753Z,7.29
2022-11-29T09:09:58.100Z,7.31
2022-11-29T09:12:24.424Z,7.34
2022-11-29T09:14:50.723Z,7.40
2022-11-29T09:17:18.427Z,7.40
2022-11-29T09:19:44.686Z,7.39
2022-11-29T09:22:11.005Z,7.41
2022-11-29T09:24:37.321Z,7.41
2022-11-29T09:27:03.649Z,7.42
2022-11-29T09:29:29.920Z,7.43
2022-11-29T09:31:56.266Z,7.45
2022-11-29T09:34:24.032Z,7.49
2022-11-29T09:36:50.308Z,7.50
2022-11-29T09:39:16.659Z,7.50
2022-11-29T09:41:58.096Z,7.52
2022-11-29T09:44:30.479Z,7.52
2022-11-29T09:47:00.507Z,7.58
2022-11-29T09:49:44.588Z,7.70
2022-11-29T09:52:16.251Z,7.68
2022-11-29T09:54:45.684Z,7.61
2022-11-29T09:57:12.587Z,7.67
2022-11-29T09:59:41.874Z,7.66
2022-11-29T10:02:20.911Z,7.68
2022-11-29T10:04:51.918Z,7.72
2022-11-29T10:07:20.913Z,7.72
2022-11-29T10:09:50.264Z,7.76
2022-11-29T10:12:18.797Z,7.78
2022-11-29T10:14:48.460Z,7.77
2022-11-29T10:17:23.667Z,7.83
2022-11-29T10:19:52.714Z,7.83
2022-11-29T10:22:21.795Z,7.72
2022-11-29T10:24:49.926Z,7.58
2022-11-29T10:27:20.341Z,7.65
2022-11-29T10:29:46.898Z,7.71
2022-11-29T10:32:13.912Z,7.79
2022-11-29T10:34:40.887Z,7.72
2022-11-29T10:37:12.869Z,7.65
2022-11-29T10:39:41.674Z,7.66
2022-11-29T10:42:12.911Z,7.73
2022-11-29T10:44:39.180Z,7.79
2022-11-29T10:47:10.710Z,7.75
2022-11-29T10:49:37.649Z,7.66
2022-11-29T10:52:04.002Z,7.72
2022-11-29T10:54:36.908Z,7.66
2022-11-29T10:57:08.410Z,7.72
2022-11-29T10:59:34.678Z,7.78
2022-11-29T11:02:01.718Z,7.84
2022-11-29T11:04:29.321Z,7.78
2022-11-29T11:06:56.739Z,7.79
2022-11-29T11:09:27.877Z,7.88
2022-11-29T11:11:57.043Z,7.96
2022-11-29T11:14:24.175Z,8.02
2022-11-29T11:16:51.105Z,8.02
2022-11-29T11:19:24.722Z,8.09
2022-11-29T11:21:51.263Z,7.99
2022-11-29T11:24:22.992Z,8.06
2022-11-29T11:26:49.321Z,7.99
2022-11-29T11:29:18.009Z,7.97
2022-11-29T11:31:51.347Z,8.00
2022-11-29T11:34:23.672Z,8.04
2022-11-29T11:36:50.052Z,8.15
2022-11-29T11:39:19.618Z,8.10
2022-11-29T11:41:46.744Z,8.09
2022-11-29T11:47:17.653Z,8.17
2022-11-29T11:49:48.218Z,8.22
2022-11-29T11:52:18.799Z,8.18
2022-11-29T11:54:45.433Z,8.17
2022-11-29T11:57:16.083Z,8.20
2022-11-29T11:59:47.560Z,8.25
2022-11-29T12:02:24.164Z,8.29
2022-11-29T12:04:52.065Z,8.31
2022-11-29T12:07:44.988Z,8.29
2022-11-29T12:10:16.173Z,8.36
2022-11-29T12:12:43.310Z,8.33
2022-11-29T12:15:15.607Z,8.32
2022-11-29T12:17:47.304Z,8.34
2022-11-29T12:20:20.229Z,8.40
2022-11-29T12:22:50.846Z,8.48
2022-11-29T12:25:19.508Z,8.47
2022-11-29T12:27:45.825Z,8.37
2022-11-29T12:30:14.707Z,8.38
2022-11-29T12:32:51.229Z,8.42
2022-11-29T12:35:28.154Z,8.43
2022-11-29T12:37:58.502Z,8.44
2022-11-29T12:40:31.148Z,8.47
2022-11-29T12:43:01.410Z,8.40
2022-11-29T12:45:35.552Z,8.44
2022-11-29T12:48:06.669Z,8.37
2022-11-29T12:50:39.036Z,8.33
2022-11-29T12:53:13.382Z,8.47
2022-11-29T12:55:47.112Z,8.57
2022-11-29T12:58:18.175Z,8.54
2022-11-29T13:00:51.782Z,8.50
2022-11-29T13:03:21.815Z,8.34
2022-11-29T13:05:54.554Z,8.32
2022-11-29T13:08:36.778Z,8.25
2022-11-29T13:11:08.955Z,8.34
2022-11-29T13:13:39.320Z,8.37
2022-11-29T13:16:15.836Z,8.40
2022-11-29T13:18:50.434Z,8.27
2022-11-29T13:21:19.173Z,8.26
2022-11-29T13:26:36.483Z,8.22
2022-11-29T13:29:03.700Z,8.22
2022-11-29T13:31:32.314Z,8.14
2022-11-29T13:34:01.520Z,8.14
2022-11-29T13:36:42.446Z,8.25
2022-11-29T13:39:13.538Z,8.17
2022-11-29T13:41:41.594Z,8.11
2022-11-29T13:44:11.588Z,8.22
2022-11-29T13:46:46.831Z,8.19
2022-11-29T13:49:20.536Z,8.17
2022-11-29T13:51:47.359Z,8.04
2022-11-29T13:54:26.048Z,8.07
2022-11-29T13:57:00.771Z,8.18
2022-11-29T13:59:28.122Z,8.11
2022-11-29T14:01:56.153Z,8.06
2022-11-29T14:04:24.544Z,8.08
2022-11-29T14:07:01.094Z,8.02
2022-11-29T14:09:28.908Z,8.15
2022-11-29T14:11:59.721Z,8.08
2022-11-29T14:14:28.630Z,8.03
2022-11-29T14:16:58.190Z,7.99
2022-11-29T14:19:28.804Z,7.93
2022-11-29T14:22:17.015Z,7.91
2022-11-29T14:24:54.598Z,7.95
2022-11-29T14:27:39.679Z,7.96
2022-11-29T14:30:21.113Z,7.90
2022-11-29T14:32:56.478Z,7.92
2022-11-29T14:35:30.354Z,7.97
2022-11-29T14:38:02.553Z,7.93
2022-11-29T14:40:31.278Z,7.91
2022-11-29T14:42:57.946Z,7.93
2022-11-29T14:45:26.309Z,7.85
2022-11-29T14:47:54.067Z,7.93
2022-11-29T14:50:31.489Z,7.86
2022-11-29T14:53:00.250Z,7.87
2022-11-29T14:55:31.091Z,7.85
2022-11-29T14:58:12.290Z,7.83
2022-11-29T15:00:43.259Z,7.86
2022-11-29T15:03:12.849Z,7.88
2022-11-29T15:05:41.413Z,7.90
2022-11-29T15:08:09.189Z,7.85
2022-11-29T15:10:37.300Z,7.78
2022-11-29T15:13:04.016Z,7.75
2022-11-29T15:15:36.051Z,7.76
2022-11-29T15:18:06.347Z,7.77
2022-11-29T15:20:39.015Z,7.78
2022-11-29T15:23:07.759Z,7.78
2022-11-29T15:25:34.460Z,7.76
2022-11-29T15:28:01.466Z,7.86
2022-11-29T15:30:29.269Z,7.86
2022-11-29T15:32:55.892Z,7.83
2022-11-29T15:35:22.647Z,7.87
2022-11-29T15:37:51.625Z,7.80
2022-11-29T15:40:19.534Z,7.76
2022-11-29T15:42:47.630Z,7.75
2022-11-29T15:45:28.797Z,7.76
2022-11-29T15:47:55.564Z,7.78
2022-11-29T15:50:25.488Z,7.78
2022-11-29T15:52:54.455Z,7.77
2022-11-29T15:55:20.918Z,7.79
2022-11-29T15:57:48.906Z,7.83
2022-11-29T16:00:16.457Z,7.83
2022-11-29T16:02:46.199Z,7.84
2022-11-29T16:05:16.003Z,7.84
2022-11-29T16:07:43.229Z,7.85
2022-11-29T16:10:14.437Z,7.89
2022-11-29T16:12:50.244Z,7.92
2022-11-29T16:15:24.750Z,7.88
2022-11-29T16:17:51.881Z,7.86
2022-11-29T16:20:21.010Z,7.89
2022-11-29T16:22:47.299Z,7.89
2022-11-29T16:25:16.540Z,7.85
2022-11-29T16:27:43.269Z,7.87
2022-11-29T16:30:19.844Z,7.83
2022-11-29T16:32:49.792Z,7.83
2022-11-29T16:35:18.780Z,7.84
2022-11-29T16:37:45.797Z,7.83
2022-11-29T16:40:21.791Z,7.82
2022-11-29T16:43:05.101Z,7.83
2022-11-29T16:45:33.135Z,7.86
2022-11-29T16:47:59.910Z,7.82
2022-11-29T16:50:27.002Z,7.82
2022-11-29T16:52:56.754Z,7.81
2022-11-29T16:55:24.841Z,7.84
2022-11-29T16:57:51.162Z,7.81
2022-11-29T17:00:28.422Z,7.81
2022-11-29T17:02:54.716Z,7.78
2022-11-29T17:05:21.001Z,7.77
2022-11-29T17:07:47.742Z,7.79
2022-11-29T17:10:16.801Z,7.78
2022-11-29T17:12:48.000Z,7.77
2022-11-29T17:15:14.802Z,7.76
2022-11-29T17:17:41.944Z,7.74
2022-11-29T17:20:08.523Z,7.75
2022-11-29T17:22:34.831Z,7.74
2022-11-29T17:25:01.157Z,7.72
2022-11-29T17:27:27.446Z,7.65
2022-11-29T17:29:55.113Z,7.59
2022-11-29T17:32:26.538Z,7.54
2022-11-29T17:34:53.240Z,7.48
2022-11-29T17:37:19.524Z,7.44
2022-11-29T17:39:46.201Z,7.37
2022-11-29T17:42:12.634Z,7.31
2022-11-29T17:44:38.900Z,7.26
2022-11-29T17:47:06.566Z,7.22
2022-11-29T17:49:32.840Z,7.18
2022-11-29T17:51:59.118Z,7.19
2022-11-29T17:54:25.417Z,7.24
2022-11-29T17:56:52.006Z,7.26
2022-11-29T17:59:18.605Z,7.24
2022-11-29T18:01:45.118Z,7.25
2022-11-29T18:04:12.853Z,7.24
2022-11-29T18:06:40.041Z,7.23
2022-11-29T18:09:07.331Z,7.21
2022-11-29T18:11:43.276Z,7.23
2022-11-29T18:14:14.010Z,7.26
2022-11-29T18:16:40.347Z,7.26
2022-11-29T18:19:07.366Z,7.25
2022-11-29T18:21:35.351Z,7.27
2022-11-29T18:24:02.439Z,7.29
2022-11-29T18:26:29.807Z,7.32
2022-11-29T18:28:57.738Z,7.29
2022-11-29T18:31:24.772Z,7.28
2022-11-29T18:33:52.482Z,7.27
2022-11-29T18:36:20.019Z,7.25
2022-11-29T18:38:48.048Z,7.23
2022-11-29T18:41:16.119Z,7.36
2022-11-29T18:43:42.565Z,7.27
2022-11-29T18:46:09.481Z,7.44
2022-11-29T18:48:36.018Z,7.34
2022-11-29T18:51:02.619Z,7.23
2022-11-29T18:53:28.963Z,7.19
2022-11-29T18:56:00.836Z,7.29
2022-11-29T18:58:27.146Z,7.27
2022-11-29T19:00:53.494Z,7.39
2022-11-29T19:03:19.925Z,7.25
2022-11-29T19:05:49.763Z,7.17
2022-11-29T19:08:16.049Z,7.25
2022-11-29T19:10:42.373Z,7.22
2022-11-29T19:13:10.024Z,7.29
2022-11-29T19:15:36.358Z,7.23
2022-11-29T19:18:02.638Z,7.11
2022-11-29T19:20:28.987Z,7.13
2022-11-29T19:23:00.270Z,7.12
2022-11-29T19:25:26.968Z,7.11
2022-11-29T19:27:53.262Z,7.16
2022-11-29T19:30:20.876Z,7.32
2022-11-29T19:32:47.169Z,7.23
2022-11-29T19:35:13.465Z,7.24
2022-11-29T19:37:39.778Z,7.14
2022-11-29T19:40:07.006Z,7.12
2022-11-29T19:42:33.373Z,7.09
2022-11-29T19:47:47.331Z,7.08
2022-11-29T19:50:13.641Z,7.08
2022-11-29T19:52:39.906Z,7.23
2022-11-29T19:55:06.356Z,7.26
2022-11-29T19:57:32.634Z,7.17
2022-11-29T19:59:58.908Z,7.14
2022-11-29T20:02:25.269Z,7.14
2022-11-29T20:04:53.024Z,7.34
2022-11-29T20:07:19.353Z,7.26
2022-11-29T20:09:45.923Z,7.25
2022-11-29T20:12:12.455Z,7.22
2022-11-29T20:14:38.734Z,7.23
2022-11-29T20:17:05.217Z,7.25
2022-11-29T20:19:31.625Z,7.21
2022-11-29T20:21:59.234Z,7.20
2022-11-29T20:24:25.543Z,7.22
2022-11-29T20:26:51.867Z,7.25
2022-11-29T20:29:18.243Z,7.22
2022-11-29T20:31:50.162Z,7.23
2022-11-29T20:34:17.278Z,7.25
2022-11-29T20:36:50.808Z,7.27
2022-11-29T20:39:23.174Z,7.37
2022-11-29T20:41:57.081Z,7.30
2022-11-29T20:44:30.292Z,7.34
2022-11-29T20:46:56.865Z,7.38
2022-11-29T20:49:23.363Z,7.38
2022-11-29T20:51:52.070Z,7.41
2022-11-29T20:54:19.921Z,7.51
2022-11-29T20:56:46.329Z,7.51
2022-11-29T20:59:12.641Z,7.59
2022-11-29T21:01:39.000Z,7.58
2022-11-29T21:04:05.466Z,7.42
2022-11-29T21:06:31.811Z,7.39
2022-11-29T21:08:58.095Z,7.36
2022-11-29T21:11:26.115Z,7.44
2022-11-29T21:13:52.708Z,7.31
2022-11-29T21:16:26.393Z,7.26
2022-11-29T21:18:54.175Z,7.24
2022-11-29T21:21:24.582Z,7.20
2022-11-29T21:23:55.454Z,7.25
2022-11-29T21:26:25.190Z,7.27
2022-11-29T21:28:56.946Z,7.20
2022-11-29T21:31:23.596Z,7.20
2022-11-29T21:33:50.143Z,7.28
2022-11-29T21:36:16.819Z,7.23
2022-11-29T21:38:43.112Z,7.22
2022-11-29T21:41:09.425Z,7.21
2022-11-29T21:44:04.969Z,7.20
2022-11-29T21:46:23.375Z,7.23
2022-11-29T21:48:49.637Z,7.23
2022-11-29T21:51:15.947Z,7.22
2022-11-29T21:53:42.260Z,7.22
2022-11-29T21:56:09.667Z,7.27
2022-11-29T21:58:37.075Z,7.30
2022-11-29T22:01:07.391Z,7.25
2022-11-29T22:03:35.068Z,7.26
2022-11-29T22:06:02.333Z,7.31
2022-11-29T22:08:28.623Z,7.28
2022-11-29T22:10:59.532Z,7.27
2022-11-29T22:13:25.856Z,7.29
2022-11-29T22:15:52.172Z,7.25
2022-11-29T22:18:18.509Z,7.24
2022-11-29T22:20:46.187Z,7.26
2022-11-29T22:23:12.472Z,7.24
2022-11-29T22:25:38.785Z,7.22
2022-11-29T22:28:05.106Z,7.20
2022-11-29T22:30:31.383Z,7.29
2022-11-29T22:32:57.685Z,7.27
2022-11-29T22:35:23.971Z,7.22
2022-11-29T22:37:51.628Z,7.37
2022-11-29T22:40:17.950Z,7.33
2022-11-29T22:42:44.259Z,7.23
2022-11-29T22:45:10.934Z,7.20
2022-11-29T22:47:37.219Z,7.39
2022-11-29T22:50:03.726Z,7.27
2022-11-29T22:52:30.079Z,7.18
2022-11-29T22:55:02.898Z,7.22
2022-11-29T22:57:30.949Z,7.22
2022-11-29T22:59:57.239Z,7.21
2022-11-29T23:02:23.572Z,7.31
2022-11-29T23:04:49.909Z,7.28
2022-11-29T23:07:16.169Z,7.29
2022-11-29T23:09:42.467Z,7.29
2022-11-29T23:12:10.114Z,7.29
2022-11-29T23:14:36.442Z,7.39
2022-11-29T23:17:02.725Z,7.26
2022-11-29T23:19:29.037Z,7.25
2022-11-29T23:21:55.341Z,7.28
2022-11-29T23:24:21.657Z,7.34
2022-11-29T23:26:47.937Z,7.27
2022-11-29T23:29:16.477Z,7.24
2022-11-29T23:31:42.852Z,7.31
2022-11-29T23:34:09.673Z,7.21
2022-11-29T23:36:36.003Z,7.25
2022-11-29T23:39:02.304Z,7.17
2022-11-29T23:41:28.631Z,7.20
2022-11-29T23:43:55.042Z,7.23
2022-11-29T23:46:23.525Z,7.18
2022-11-29T23:48:49.870Z,7.21
2022-11-29T23:51:16.215Z,7.20
2022-11-29T23:53:42.699Z,7.23
2022-11-29T23:56:11.959Z,7.19
2022-11-29T23:58:38.619Z,7.19
